createdAt,value
2018-06-11T00:00:59.070Z,94.16
2018-06-11T00:01:59.074Z,94.35
2018-06-11T00:02:59.077Z,94.26
2018-06-11T00:03:59.081Z,94.35
2018-06-11T00:04:59.083Z,93.96
2018-06-11T00:05:59.088Z,94.64
2018-06-11T00:06:59.089Z,94.54
2018-06-11T00:07:59.094Z,94.54
2018-06-11T00:08:59.096Z,94.01
2018-06-11T00:09:59.098Z,94.73
2018-06-11T00:10:59.103Z,93.92
2018-06-11T00:11:59.106Z,94.31
2018-06-11T00:12:59.107Z,94.40
2018-06-11T00:13:59.113Z,94.49
2018-06-11T00:14:59.115Z,93.92
2018-06-11T00:15:59.117Z,94.59
2018-06-11T00:16:59.119Z,94.31
2018-06-11T00:17:59.127Z,94.31
2018-06-11T00:18:59.127Z,94.31
2018-06-11T00:19:59.130Z,94.49
2018-06-11T00:20:59.132Z,94.40
2018-06-11T00:21:59.136Z,94.31
2018-06-11T00:22:59.149Z,94.11
2018-06-11T00:23:59.141Z,94.21
2018-06-11T00:24:59.143Z,94.40
2018-06-11T00:25:59.146Z,94.59
2018-06-11T00:26:59.150Z,94.40
2018-06-11T00:27:59.153Z,94.69
2018-06-11T00:28:59.155Z,94.21
2018-06-11T00:29:59.163Z,94.11
2018-06-11T00:30:59.162Z,94.21
2018-06-11T00:31:59.167Z,94.40
2018-06-11T00:32:59.167Z,94.40
2018-06-11T00:33:59.170Z,94.21
2018-06-11T00:34:59.173Z,94.93
2018-06-11T00:35:59.179Z,94.16
2018-06-11T00:36:59.178Z,94.78
2018-06-11T00:37:59.182Z,94.40
2018-06-11T00:38:59.186Z,94.21
2018-06-11T00:39:59.189Z,94.83
2018-06-11T00:40:59.190Z,94.98
2018-06-11T00:41:59.193Z,94.49
2018-06-11T00:42:59.197Z,95.12
2018-06-11T00:43:59.199Z,94.35
2018-06-11T00:44:59.203Z,94.93
2018-06-11T00:45:59.205Z,94.93
2018-06-11T00:46:59.210Z,94.64
2018-06-11T00:47:59.212Z,94.45
2018-06-11T00:48:59.213Z,94.93
2018-06-11T00:49:59.217Z,95.03
2018-06-11T00:50:59.221Z,94.74
2018-06-11T00:51:59.223Z,94.64
2018-06-11T00:52:59.225Z,94.07
2018-06-11T00:53:59.231Z,95.03
2018-06-11T00:54:59.234Z,93.87
2018-06-11T00:55:59.235Z,95.12
2018-06-11T00:56:59.237Z,95.12
2018-06-11T00:57:59.240Z,94.74
2018-06-11T00:58:59.243Z,94.45
2018-06-11T00:59:59.247Z,95.03
2018-06-11T01:00:59.247Z,94.83
2018-06-11T01:01:59.252Z,94.93
2018-06-11T01:02:59.257Z,94.45
2018-06-11T01:03:59.258Z,94.93
2018-06-11T01:04:59.260Z,94.83
2018-06-11T01:05:59.263Z,94.54
2018-06-11T01:06:59.265Z,94.07
2018-06-11T01:07:59.269Z,95.12
2018-06-11T01:08:59.271Z,94.54
2018-06-11T01:09:59.275Z,94.54
2018-06-11T01:10:59.281Z,95.03
2018-06-11T01:11:59.279Z,94.54
2018-06-11T01:12:59.280Z,95.03
2018-06-11T01:13:59.286Z,94.54
2018-06-11T01:14:59.289Z,94.64
2018-06-11T01:15:59.290Z,94.16
2018-06-11T01:16:59.293Z,94.83
2018-06-11T01:17:59.295Z,94.93
2018-06-11T01:18:59.302Z,94.83
2018-06-11T01:19:59.301Z,94.93
2018-06-11T01:20:59.304Z,94.35
2018-06-11T01:21:59.306Z,94.16
2018-06-11T01:22:59.311Z,94.45
2018-06-11T01:23:59.312Z,94.35
2018-06-11T01:24:59.315Z,94.26
2018-06-11T01:25:59.317Z,94.07
2018-06-11T01:26:59.321Z,95.12
2018-06-11T01:27:59.324Z,94.83
2018-06-11T01:28:59.325Z,94.54
2018-06-11T01:29:59.328Z,94.45
2018-06-11T01:30:59.331Z,94.64
2018-06-11T01:31:59.335Z,94.93
2018-06-11T01:32:59.336Z,94.64
2018-06-11T01:33:59.340Z,95.03
2018-06-11T01:34:59.342Z,94.35
2018-06-11T01:35:59.346Z,94.54
2018-06-11T01:36:59.346Z,94.64
2018-06-11T01:37:59.350Z,94.93
2018-06-11T01:38:59.356Z,95.12
2018-06-11T01:39:59.356Z,94.64
2018-06-11T01:40:59.357Z,94.64
2018-06-11T01:41:59.362Z,95.03
2018-06-11T01:42:59.363Z,94.83
2018-06-11T01:43:59.367Z,94.93
2018-06-11T01:44:59.373Z,94.64
2018-06-11T01:45:59.372Z,94.93
2018-06-11T01:46:59.374Z,94.93
2018-06-11T01:47:59.377Z,95.03
2018-06-11T01:48:59.378Z,95.12
2018-06-11T01:49:59.386Z,95.21
2018-06-11T01:50:59.386Z,94.93
2018-06-11T01:51:59.389Z,94.64
2018-06-11T01:52:59.389Z,94.54
2018-06-11T01:53:59.392Z,94.54
2018-06-11T01:54:59.395Z,94.35
2018-06-11T01:55:59.399Z,94.54
2018-06-11T01:56:59.400Z,94.54
2018-06-11T01:57:59.403Z,94.26
2018-06-11T01:58:59.407Z,94.54
2018-06-11T01:59:59.412Z,94.64
2018-06-11T02:00:59.411Z,94.26
2018-06-11T02:01:59.416Z,94.26
2018-06-11T02:02:59.418Z,94.35
2018-06-11T02:03:59.419Z,94.54
2018-06-11T02:04:59.422Z,94.74
2018-06-11T02:05:59.423Z,94.35
2018-06-11T02:06:59.428Z,94.45
2018-06-11T02:07:59.430Z,94.54
2018-06-11T02:08:59.432Z,94.54
2018-06-11T02:09:59.435Z,94.07
2018-06-11T02:10:59.438Z,94.74
2018-06-11T02:11:59.441Z,94.54
2018-06-11T02:12:59.443Z,94.83
2018-06-11T02:13:59.445Z,94.16
2018-06-11T02:14:59.448Z,94.74
2018-06-11T02:15:59.450Z,94.64
2018-06-11T02:16:59.452Z,94.16
2018-06-11T02:17:59.455Z,94.54
2018-06-11T02:18:59.461Z,94.35
2018-06-11T02:19:59.463Z,94.16
2018-06-11T02:20:59.464Z,95.17
2018-06-11T02:21:59.471Z,94.88
2018-06-11T02:22:59.469Z,94.74
2018-06-11T02:23:59.472Z,94.98
2018-06-11T02:24:59.474Z,95.07
2018-06-11T02:25:59.476Z,94.88
2018-06-11T02:26:59.480Z,94.88
2018-06-11T02:27:59.482Z,94.49
2018-06-11T02:28:59.483Z,95.17
2018-06-11T02:29:59.486Z,95.36
2018-06-11T02:30:59.491Z,95.26
2018-06-11T02:31:59.491Z,95.17
2018-06-11T02:32:59.495Z,95.17
2018-06-11T02:33:59.496Z,94.88
2018-06-11T02:34:59.498Z,95.07
2018-06-11T02:35:59.502Z,95.07
2018-06-11T02:36:59.503Z,95.07
2018-06-11T02:37:59.507Z,95.17
2018-06-11T02:38:59.559Z,95.26
2018-06-11T02:39:59.512Z,95.07
2018-06-11T02:40:59.514Z,94.79
2018-06-11T02:41:59.517Z,95.07
2018-06-11T02:42:59.518Z,94.59
2018-06-11T02:43:59.522Z,95.07
2018-06-11T02:44:59.523Z,94.98
2018-06-11T02:45:59.526Z,95.26
2018-06-11T02:46:59.528Z,94.69
2018-06-11T02:47:59.531Z,94.98
2018-06-11T02:48:59.533Z,94.98
2018-06-11T02:49:59.536Z,94.98
2018-06-11T02:50:59.539Z,94.88
2018-06-11T02:51:59.541Z,94.98
2018-06-11T02:52:59.543Z,95.26
2018-06-11T02:53:59.544Z,95.07
2018-06-11T02:54:59.547Z,95.07
2018-06-11T02:55:59.551Z,94.79
2018-06-11T02:56:59.552Z,94.69
2018-06-11T02:57:59.554Z,95.07
2018-06-11T02:58:59.556Z,94.83
2018-06-11T02:59:59.560Z,94.12
2018-06-11T03:00:59.561Z,94.31
2018-06-11T03:01:59.564Z,94.49
2018-06-11T03:02:59.567Z,94.26
2018-06-11T03:03:59.570Z,94.45
2018-06-11T03:04:59.570Z,94.74
2018-06-11T03:05:59.574Z,94.54
2018-06-11T03:06:59.575Z,94.35
2018-06-11T03:07:59.581Z,94.74
2018-06-11T03:08:59.579Z,94.40
2018-06-11T03:09:59.582Z,94.45
2018-06-11T03:10:59.587Z,95.21
2018-06-11T03:11:59.589Z,94.54
2018-06-11T03:12:59.590Z,94.54
2018-06-11T03:13:59.593Z,94.74
2018-06-11T03:14:59.595Z,94.26
2018-06-11T03:15:59.599Z,94.35
2018-06-11T03:16:59.599Z,94.35
2018-06-11T03:17:59.603Z,94.54
2018-06-11T03:18:59.614Z,94.74
2018-06-11T03:19:59.609Z,94.35
2018-06-11T03:20:59.608Z,94.54
2018-06-11T03:21:59.612Z,94.54
2018-06-11T03:22:59.615Z,94.16
2018-06-11T03:23:59.617Z,94.54
2018-06-11T03:24:59.619Z,94.54
2018-06-11T03:25:59.622Z,94.45
2018-06-11T03:26:59.625Z,94.35
2018-06-11T03:27:59.628Z,94.64
2018-06-11T03:28:59.631Z,94.35
2018-06-11T03:29:59.630Z,94.26
2018-06-11T03:30:59.633Z,94.21
2018-06-11T03:31:59.636Z,94.40
2018-06-11T03:32:59.638Z,94.59
2018-06-11T03:33:59.641Z,94.69
2018-06-11T03:34:59.644Z,94.49
2018-06-11T03:35:59.646Z,94.49
2018-06-11T03:36:59.648Z,94.21
2018-06-11T03:37:59.653Z,94.49
2018-06-11T03:38:59.653Z,94.69
2018-06-11T03:39:59.655Z,94.69
2018-06-11T03:40:59.657Z,94.69
2018-06-11T03:41:59.661Z,94.21
2018-06-11T03:42:59.661Z,94.40
2018-06-11T03:43:59.664Z,94.59
2018-06-11T03:44:59.668Z,94.40
2018-06-11T03:45:59.669Z,94.49
2018-06-11T03:46:59.672Z,94.49
2018-06-11T03:47:59.674Z,94.31
2018-06-11T03:48:59.675Z,94.49
2018-06-11T03:49:59.679Z,94.59
2018-06-11T03:50:59.681Z,94.49
2018-06-11T03:51:59.684Z,94.69
2018-06-11T03:52:59.686Z,94.69
2018-06-11T03:53:59.689Z,94.31
2018-06-11T03:54:59.692Z,94.40
2018-06-11T03:55:59.693Z,94.31
2018-06-11T03:56:59.695Z,94.31
2018-06-11T03:57:59.697Z,94.35
2018-06-11T03:58:59.700Z,94.07
2018-06-11T03:59:59.703Z,94.54
2018-06-11T04:00:59.706Z,94.35
2018-06-11T04:01:59.707Z,94.54
2018-06-11T04:02:59.711Z,94.35
2018-06-11T04:03:59.712Z,94.54
2018-06-11T04:04:59.714Z,94.54
2018-06-11T04:05:59.717Z,94.54
2018-06-11T04:06:59.724Z,94.54
2018-06-11T04:07:59.722Z,95.03
2018-06-11T04:08:59.723Z,94.35
2018-06-11T04:09:59.726Z,94.35
2018-06-11T04:10:59.778Z,94.35
2018-06-11T04:11:59.733Z,94.45
2018-06-11T04:12:59.735Z,94.16
2018-06-11T04:13:59.736Z,94.35
2018-06-11T04:14:59.738Z,94.16
2018-06-11T04:15:59.741Z,94.35
2018-06-11T04:16:59.745Z,94.35
2018-06-11T04:17:59.747Z,94.35
2018-06-11T04:18:59.753Z,94.35
2018-06-11T04:19:59.753Z,94.26
2018-06-11T04:20:59.754Z,94.35
2018-06-11T04:21:59.759Z,94.26
2018-06-11T04:22:59.760Z,93.68
2018-06-11T04:23:59.762Z,94.54
2018-06-11T04:24:59.764Z,93.97
2018-06-11T04:25:59.767Z,94.07
2018-06-11T04:26:59.770Z,93.77
2018-06-11T04:27:59.773Z,94.45
2018-06-11T04:28:59.774Z,93.97
2018-06-11T04:29:59.778Z,93.49
2018-06-11T04:30:59.781Z,94.54
2018-06-11T04:31:59.783Z,94.74
2018-06-11T04:32:59.785Z,93.68
2018-06-11T04:33:59.788Z,94.16
2018-06-11T04:34:59.790Z,93.68
2018-06-11T04:35:59.793Z,93.63
2018-06-11T04:36:59.794Z,94.01
2018-06-11T04:37:59.799Z,93.92
2018-06-11T04:38:59.801Z,93.68
2018-06-11T04:39:59.803Z,93.87
2018-06-11T04:40:59.805Z,94.11
2018-06-11T04:41:59.809Z,93.44
2018-06-11T04:42:59.812Z,94.21
2018-06-11T04:43:59.814Z,94.01
2018-06-11T04:44:59.816Z,93.73
2018-06-11T04:45:59.822Z,94.11
2018-06-11T04:46:59.822Z,93.54
2018-06-11T04:47:59.826Z,93.73
2018-06-11T04:48:59.827Z,93.44
2018-06-11T04:49:59.830Z,93.92
2018-06-11T04:50:59.835Z,94.01
2018-06-11T04:51:59.836Z,93.73
2018-06-11T04:52:59.839Z,93.63
2018-06-11T04:53:59.840Z,93.63
2018-06-11T04:54:59.844Z,93.92
2018-06-11T04:55:59.848Z,94.11
2018-06-11T04:56:59.849Z,93.34
2018-06-11T04:57:59.853Z,93.73
2018-06-11T04:58:59.856Z,93.92
2018-06-11T04:59:59.858Z,93.92
2018-06-11T05:00:59.859Z,93.54
2018-06-11T05:01:59.866Z,93.73
2018-06-11T05:02:59.867Z,93.82
2018-06-11T05:03:59.869Z,93.87
2018-06-11T05:04:59.871Z,93.29
2018-06-11T05:05:59.875Z,94.06
2018-06-11T05:06:59.877Z,93.58
2018-06-11T05:07:59.926Z,93.58
2018-06-11T05:08:59.884Z,93.49
2018-06-11T05:09:59.904Z,93.29
2018-06-11T05:10:59.891Z,93.39
2018-06-11T05:11:59.894Z,93.96
2018-06-11T05:12:59.895Z,93.10
2018-06-11T05:13:59.898Z,93.39
2018-06-11T05:14:59.900Z,93.39
2018-06-11T05:15:59.904Z,93.29
2018-06-11T05:16:59.906Z,93.01
2018-06-11T05:17:59.909Z,93.58
2018-06-11T05:18:59.914Z,93.19
2018-06-11T05:19:59.916Z,93.01
2018-06-11T05:20:59.919Z,92.67
2018-06-11T05:21:59.922Z,93.15
2018-06-11T05:22:59.924Z,92.96
2018-06-11T05:23:59.928Z,93.01
2018-06-11T05:24:59.933Z,92.96
2018-06-11T05:25:59.940Z,92.86
2018-06-11T05:26:59.938Z,92.96
2018-06-11T05:27:59.948Z,92.38
2018-06-11T05:28:59.944Z,92.76
2018-06-11T05:29:59.946Z,92.19
2018-06-11T05:30:59.951Z,92.19
2018-06-11T05:31:59.953Z,92.29
2018-06-11T05:32:59.956Z,92.47
2018-06-11T05:33:59.961Z,92.04
2018-06-11T05:34:59.965Z,91.90
2018-06-11T05:35:59.967Z,92.61
2018-06-11T05:39:00.417Z,92.33
2018-06-11T05:40:00.425Z,92.52
2018-06-11T05:41:00.424Z,91.94
2018-06-11T05:42:00.485Z,92.13
2018-06-11T05:43:00.458Z,91.94
2018-06-11T05:44:00.507Z,91.94
2018-06-11T05:45:00.437Z,91.85
2018-06-11T05:46:00.440Z,91.80
2018-06-11T05:47:00.534Z,91.46
2018-06-11T05:48:00.527Z,91.41
2018-06-11T05:49:00.517Z,91.60
2018-06-11T05:50:00.543Z,91.89
2018-06-11T05:51:00.509Z,91.41
2018-06-11T05:52:00.480Z,91.03
2018-06-11T05:53:00.516Z,91.31
2018-06-11T05:54:00.504Z,90.93
2018-06-11T05:55:00.665Z,90.83
2018-06-11T05:56:00.476Z,90.73
2018-06-11T05:57:00.480Z,90.73
2018-06-11T05:58:00.483Z,90.59
2018-06-11T05:59:00.487Z,90.11
2018-06-11T06:00:00.490Z,90.20
2018-06-11T06:01:00.494Z,89.63
2018-06-11T06:02:00.497Z,90.01
2018-06-11T06:03:00.502Z,89.53
2018-06-11T06:04:00.564Z,90.20
2018-06-11T06:05:00.515Z,89.63
2018-06-11T06:06:00.514Z,90.01
2018-06-11T06:07:00.517Z,90.20
2018-06-11T06:08:00.556Z,89.72
2018-06-11T06:09:00.544Z,89.72
2018-06-11T06:10:00.544Z,89.72
2018-06-11T06:11:00.534Z,90.30
2018-06-11T06:12:00.537Z,90.34
2018-06-11T06:13:00.541Z,89.86
2018-06-11T06:14:00.550Z,89.86
2018-06-11T06:15:00.550Z,89.77
2018-06-11T06:16:00.553Z,89.77
2018-06-11T06:17:00.689Z,89.39
2018-06-11T06:18:00.700Z,88.61
2018-06-11T06:19:00.604Z,89.29
2018-06-11T06:20:00.667Z,89.29
2018-06-11T06:21:00.656Z,88.46
2018-06-11T06:22:00.624Z,87.98
2018-06-11T06:23:00.582Z,88.27
2018-06-11T06:24:00.588Z,88.17
2018-06-11T06:25:00.590Z,88.27
2018-06-11T06:26:00.594Z,87.88
2018-06-11T06:27:00.599Z,87.21
2018-06-11T06:28:00.604Z,87.88
2018-06-11T06:29:00.866Z,87.40
2018-06-11T06:30:00.637Z,87.60
2018-06-11T06:31:00.619Z,88.08
2018-06-11T06:32:00.627Z,88.17
2018-06-11T06:33:00.626Z,86.92
2018-06-11T06:34:00.632Z,87.21
2018-06-11T06:35:00.639Z,87.83
2018-06-11T06:36:00.641Z,88.02
2018-06-11T06:37:00.646Z,86.96
2018-06-11T06:38:00.649Z,87.06
2018-06-11T06:39:00.654Z,86.87
2018-06-11T06:40:00.657Z,86.87
2018-06-11T06:41:00.668Z,87.16
2018-06-11T06:42:00.669Z,86.58
2018-06-11T06:43:00.828Z,86.39
2018-06-11T06:44:00.771Z,85.81
2018-06-11T06:45:00.682Z,85.66
2018-06-11T06:46:00.747Z,86.52
2018-06-11T06:47:00.763Z,86.43
2018-06-11T06:48:00.723Z,87.01
2018-06-11T06:49:00.727Z,85.94
2018-06-11T06:50:00.722Z,86.24
2018-06-11T06:51:00.852Z,85.94
2018-06-11T06:52:00.715Z,86.38
2018-06-11T06:53:00.720Z,86.18
2018-06-11T06:54:00.725Z,85.89
2018-06-11T06:55:00.731Z,86.28
2018-06-11T06:56:00.737Z,85.80
2018-06-11T06:57:00.740Z,85.50
2018-06-11T06:58:00.746Z,85.02
2018-06-11T06:59:00.751Z,84.44
2018-06-11T07:00:00.851Z,84.06
2018-06-11T07:01:00.764Z,84.58
2018-06-11T07:02:01.037Z,83.52
2018-06-11T07:03:00.770Z,83.42
2018-06-11T07:04:00.775Z,84.00
2018-06-11T07:05:00.782Z,82.26
2018-06-11T07:06:00.787Z,82.94
2018-06-11T07:07:00.856Z,83.62
2018-06-11T07:08:00.821Z,82.36
2018-06-11T07:09:00.804Z,83.42
2018-06-11T07:10:00.811Z,83.42
2018-06-11T07:11:00.833Z,83.91
2018-06-11T07:12:00.820Z,82.56
2018-06-11T07:13:00.826Z,82.98
2018-06-11T07:14:00.835Z,83.66
2018-06-11T07:15:00.836Z,82.69
2018-06-11T07:16:00.841Z,84.33
2018-06-11T07:17:00.884Z,84.14
2018-06-11T07:18:00.863Z,83.56
2018-06-11T07:19:00.873Z,83.27
2018-06-11T07:20:00.898Z,83.47
2018-06-11T07:21:00.911Z,84.24
2018-06-11T07:22:00.884Z,84.14
2018-06-11T07:23:00.885Z,84.28
2018-06-11T07:24:00.984Z,82.25
2018-06-11T07:25:00.893Z,81.67
2018-06-11T07:26:00.898Z,82.06
2018-06-11T07:27:00.922Z,83.51
2018-06-11T07:28:00.910Z,83.70
2018-06-11T07:29:00.916Z,84.28
2018-06-11T07:30:00.921Z,84.47
2018-06-11T07:31:00.928Z,84.22
2018-06-11T07:32:00.935Z,84.03
2018-06-11T07:33:00.943Z,80.79
2018-06-11T07:34:00.949Z,79.66
2018-06-11T07:35:01.011Z,78.50
2018-06-11T07:36:01.044Z,78.92
2018-06-11T07:37:00.975Z,76.74
2018-06-11T07:38:00.985Z,74.74
2018-06-11T07:39:00.993Z,74.39
2018-06-11T07:40:01.004Z,74.10
2018-06-11T07:41:01.051Z,72.09
2018-06-11T07:42:01.024Z,71.51
2018-06-11T07:43:01.034Z,71.84
2018-06-11T07:44:01.050Z,71.94
2018-06-11T07:45:01.055Z,69.64
2018-06-11T07:46:01.066Z,65.43
2018-06-11T07:47:01.078Z,65.85
2018-06-11T07:48:01.194Z,65.75
2018-06-11T07:49:01.134Z,65.66
2018-06-11T07:50:01.169Z,65.66
2018-06-11T07:51:01.237Z,67.21
2018-06-11T07:52:01.235Z,68.96
2018-06-11T07:53:01.147Z,67.28
2018-06-11T07:54:01.158Z,66.50
2018-06-11T07:55:01.169Z,67.96
2018-06-11T07:56:01.182Z,69.70
2018-06-11T07:57:01.193Z,68.93
2018-06-11T07:58:01.205Z,69.41
2018-06-11T07:59:01.241Z,68.77
2018-06-11T08:00:01.281Z,67.15
2018-06-11T08:01:01.242Z,64.04
2018-06-11T08:02:01.255Z,62.77
2018-06-11T08:03:01.273Z,61.25
2018-06-11T08:04:01.280Z,60.47
2018-06-11T08:05:01.309Z,60.11
2018-06-11T08:06:01.307Z,59.07
2018-06-11T08:07:01.320Z,58.03
2018-06-11T08:08:01.333Z,59.30
2018-06-11T08:09:01.348Z,59.88
2018-06-11T08:10:01.362Z,60.75
2018-06-11T08:11:01.558Z,61.54
2018-06-11T08:12:01.390Z,59.00
2018-06-11T08:13:01.405Z,59.20
2018-06-11T08:14:01.419Z,59.75
2018-06-11T08:15:01.435Z,59.49
2018-06-11T08:16:01.448Z,59.30
2018-06-11T08:17:01.463Z,57.25
2018-06-11T08:18:01.525Z,57.64
2018-06-11T08:19:01.549Z,56.64
2018-06-11T08:20:01.612Z,57.90
2018-06-11T08:21:01.610Z,57.42
2018-06-11T08:22:01.665Z,55.30
2018-06-11T08:23:01.565Z,55.40
2018-06-11T08:24:01.570Z,53.48
2018-06-11T08:25:01.585Z,56.14
2018-06-11T08:26:01.600Z,54.48
2018-06-11T08:27:01.710Z,52.75
2018-06-11T08:28:01.636Z,52.87
2018-06-11T08:29:01.646Z,52.97
2018-06-11T08:30:01.666Z,53.88
2018-06-11T08:31:01.691Z,52.00
2018-06-11T08:32:01.693Z,51.21
2018-06-11T08:33:01.710Z,52.58
2018-06-11T08:34:01.727Z,54.31
2018-06-11T08:35:01.742Z,53.85
2018-06-11T08:36:02.278Z,54.63
2018-06-11T08:37:01.775Z,58.07
2018-06-11T08:38:01.799Z,56.90
2018-06-11T08:39:01.807Z,53.75
2018-06-11T08:40:01.823Z,52.00
2018-06-11T08:41:01.838Z,53.19
2018-06-11T08:42:01.856Z,53.03
2018-06-11T08:43:01.870Z,50.59
2018-06-11T08:44:01.894Z,52.80
2018-06-11T08:45:01.905Z,54.98
2018-06-11T08:46:01.922Z,56.25
2018-06-11T08:47:01.937Z,53.74
2018-06-11T08:48:02.013Z,52.59
2018-06-11T08:49:02.017Z,54.83
2018-06-11T08:50:02.105Z,50.83
2018-06-11T08:51:02.002Z,50.24
2018-06-11T08:52:02.021Z,46.97
2018-06-11T08:53:02.037Z,46.44
2018-06-11T08:54:02.054Z,46.24
2018-06-11T08:55:02.071Z,47.02
2018-06-11T08:56:02.088Z,48.97
2018-06-11T08:57:02.103Z,48.00
2018-06-11T08:58:02.313Z,49.27
2018-06-11T08:59:02.134Z,49.46
2018-06-11T09:00:02.559Z,49.29
2018-06-11T09:01:02.169Z,51.34
2018-06-11T09:02:02.184Z,50.10
2018-06-11T09:03:02.201Z,52.76
2018-06-11T09:04:02.215Z,52.25
2018-06-11T09:05:02.234Z,53.93
2018-06-11T09:06:02.525Z,55.10
2018-06-11T09:07:02.265Z,53.05
2018-06-11T09:08:02.284Z,52.95
2018-06-11T09:09:02.297Z,54.22
2018-06-11T09:10:02.312Z,51.98
2018-06-11T09:11:02.328Z,55.52
2018-06-11T09:12:02.345Z,55.62
2018-06-11T09:13:02.361Z,56.70
2018-06-11T09:14:02.377Z,54.15
2018-06-11T09:15:02.394Z,52.51
2018-06-11T09:16:02.408Z,52.15
2018-06-11T09:17:02.426Z,50.98
2018-06-11T09:18:02.493Z,48.43
2018-06-11T09:19:02.457Z,47.57
2018-06-11T09:20:02.474Z,47.36
2018-06-11T09:21:02.491Z,50.12
2018-06-11T09:22:02.509Z,48.72
2018-06-11T09:23:02.528Z,45.40
2018-06-11T09:24:02.542Z,50.98
2018-06-11T09:25:02.663Z,53.03
2018-06-11T09:26:02.576Z,52.32
2018-06-11T09:27:02.591Z,50.68
2018-06-11T09:28:02.608Z,48.72
2018-06-11T09:29:02.624Z,43.42
2018-06-11T09:30:02.906Z,45.94
2018-06-11T09:31:02.907Z,46.72
2018-06-11T09:32:02.936Z,50.95
2018-06-11T09:33:02.972Z,50.95
2018-06-11T09:34:02.708Z,49.09
2018-06-11T09:35:02.724Z,46.86
2018-06-11T09:36:02.741Z,44.10
2018-06-11T09:37:02.757Z,46.33
2018-06-11T09:38:02.773Z,49.26
2018-06-11T09:39:02.792Z,50.63
2018-06-11T09:40:02.804Z,48.87
2018-06-11T09:41:02.820Z,51.61
2018-06-11T09:42:02.837Z,51.42
2018-06-11T09:43:02.852Z,51.78
2018-06-11T09:44:02.889Z,49.36
2018-06-11T09:45:02.886Z,51.12
2018-06-11T09:46:02.901Z,49.75
2018-06-11T09:47:02.915Z,52.20
2018-06-11T09:48:02.931Z,46.31
2018-06-11T09:49:02.949Z,43.36
2018-06-11T09:50:02.963Z,44.82
2018-06-11T09:51:02.979Z,43.85
2018-06-11T09:52:02.994Z,50.90
2018-06-11T09:53:03.011Z,48.94
2018-06-11T09:54:03.025Z,46.72
2018-06-11T09:55:03.051Z,49.55
2018-06-11T09:56:03.057Z,49.87
2018-06-11T09:57:03.075Z,49.70
2018-06-11T09:58:03.087Z,49.70
2018-06-11T09:59:03.103Z,47.33
2018-06-11T10:00:03.118Z,45.30
2018-06-11T10:01:03.230Z,46.37
2018-06-11T10:02:03.214Z,47.67
2018-06-11T10:03:03.192Z,44.71
2018-06-11T10:04:03.261Z,43.42
2018-06-11T10:05:03.262Z,44.55
2018-06-11T10:06:03.213Z,45.62
2018-06-11T10:07:03.226Z,50.34
2018-06-11T10:08:03.244Z,48.19
2018-06-11T10:09:03.320Z,50.56
2018-06-11T10:10:03.274Z,46.77
2018-06-11T10:11:03.288Z,46.97
2018-06-11T10:12:03.304Z,46.86
2018-06-11T10:13:03.320Z,44.62
2018-06-11T10:14:03.336Z,43.13
2018-06-11T10:15:03.631Z,43.49
2018-06-11T10:16:03.364Z,43.77
2018-06-11T10:17:03.380Z,45.21
2018-06-11T10:18:03.396Z,45.12
2018-06-11T10:19:03.444Z,46.75
2018-06-11T10:20:03.539Z,45.78
2018-06-11T10:21:03.442Z,47.05
2018-06-11T10:22:03.454Z,50.88
2018-06-11T10:23:03.470Z,53.91
2018-06-11T10:24:03.602Z,51.27
2018-06-11T10:25:03.495Z,49.73
2018-06-11T10:26:03.512Z,48.16
2018-06-11T10:27:03.728Z,49.07
2018-06-11T10:28:03.538Z,47.31
2018-06-11T10:29:03.553Z,45.84
2018-06-11T10:30:03.567Z,46.45
2018-06-11T10:31:03.580Z,45.97
2018-06-11T10:32:03.595Z,48.24
2018-06-11T10:33:03.611Z,47.94
2018-06-11T10:34:03.624Z,48.07
2018-06-11T10:35:03.785Z,49.73
2018-06-11T10:36:03.653Z,46.52
2018-06-11T10:37:03.669Z,45.93
2018-06-11T10:38:03.685Z,46.52
2018-06-11T10:39:03.919Z,43.31
2018-06-11T10:40:03.715Z,43.60
2018-06-11T10:41:03.727Z,44.78
2018-06-11T10:42:03.743Z,43.60
2018-06-11T10:43:03.775Z,42.21
2018-06-11T10:44:03.774Z,48.60
2018-06-11T10:45:03.799Z,44.58
2018-06-11T10:46:03.802Z,43.98
2018-06-11T10:47:03.820Z,42.19
2018-06-11T10:48:03.833Z,43.85
2018-06-11T10:49:03.848Z,41.97
2018-06-11T10:50:03.873Z,43.73
2018-06-11T10:51:03.877Z,42.93
2018-06-11T10:52:03.894Z,44.57
2018-06-11T10:53:03.909Z,43.99
2018-06-11T10:54:03.925Z,44.45
2018-06-11T10:55:03.937Z,44.84
2018-06-11T10:56:03.953Z,46.43
2018-06-11T10:57:03.969Z,49.46
2018-06-11T10:58:04.053Z,49.38
2018-06-11T10:59:04.060Z,46.36
2018-06-11T11:00:04.136Z,43.30
2018-06-11T11:01:04.028Z,42.60
2018-06-11T11:02:04.040Z,43.16
2018-06-11T11:03:04.053Z,45.51
2018-06-11T11:04:04.067Z,50.12
2018-06-11T11:05:04.082Z,49.55
2018-06-11T11:06:04.097Z,45.06
2018-06-11T11:07:04.109Z,46.65
2018-06-11T11:08:04.227Z,45.18
2018-06-11T11:09:04.138Z,42.32
2018-06-11T11:10:04.157Z,42.32
2018-06-11T11:11:04.167Z,41.93
2018-06-11T11:12:04.182Z,43.99
2018-06-11T11:13:04.213Z,46.72
2018-06-11T11:14:04.210Z,44.67
2018-06-11T11:15:04.335Z,45.28
2018-06-11T11:16:04.237Z,43.30
2018-06-11T11:17:04.255Z,43.89
2018-06-11T11:18:04.267Z,47.43
2018-06-11T11:19:04.278Z,43.49
2018-06-11T11:20:04.293Z,43.49
2018-06-11T11:21:04.435Z,44.74
2018-06-11T11:22:04.321Z,45.62
2018-06-11T11:23:04.334Z,46.23
2018-06-11T11:24:04.445Z,46.04
2018-06-11T11:25:04.362Z,46.72
2018-06-11T11:26:04.440Z,43.67
2018-06-11T11:27:04.390Z,43.75
2018-06-11T11:28:04.404Z,43.63
2018-06-11T11:29:04.417Z,49.22
2018-06-11T11:30:04.431Z,48.44
2018-06-11T11:31:04.443Z,48.24
2018-06-11T11:32:04.456Z,46.09
2018-06-11T11:33:04.476Z,45.02
2018-06-11T11:34:04.482Z,49.61
2018-06-11T11:35:04.496Z,50.10
2018-06-11T11:36:04.508Z,47.67
2018-06-11T11:37:04.522Z,48.14
2018-06-11T11:38:04.736Z,50.49
2018-06-11T11:39:04.673Z,47.07
2018-06-11T11:40:05.082Z,44.70
2018-06-11T11:41:04.574Z,41.85
2018-06-11T11:42:04.586Z,43.61
2018-06-11T11:43:04.598Z,45.46
2018-06-11T11:44:04.611Z,46.34
2018-06-11T11:45:05.268Z,45.26
2018-06-11T11:46:04.638Z,47.02
2018-06-11T11:47:04.649Z,49.29
2018-06-11T11:48:04.922Z,46.58
2018-06-11T11:49:04.796Z,47.05
2018-06-11T11:50:04.687Z,48.24
2018-06-11T11:51:04.725Z,44.80
2018-06-11T11:52:04.712Z,49.41
2018-06-11T11:53:04.723Z,48.05
2018-06-11T11:54:04.737Z,46.26
2018-06-11T11:55:04.749Z,48.51
2018-06-11T11:56:04.764Z,47.24
2018-06-11T11:57:04.774Z,50.46
2018-06-11T11:58:04.785Z,49.46
2018-06-11T11:59:04.796Z,46.66
2018-06-11T12:00:04.816Z,48.19
2018-06-11T12:01:04.844Z,50.24
2018-06-11T12:02:04.833Z,49.27
2018-06-11T12:03:04.843Z,49.93
2018-06-11T12:04:04.855Z,50.31
2018-06-11T12:05:04.868Z,48.93
2018-06-11T12:06:05.179Z,47.95
2018-06-11T12:07:04.889Z,47.75
2018-06-11T12:08:04.902Z,49.97
2018-06-11T12:09:04.912Z,48.90
2018-06-11T12:10:04.925Z,50.16
2018-06-11T12:11:04.935Z,48.90
2018-06-11T12:12:05.060Z,50.07
2018-06-11T12:13:05.105Z,49.29
2018-06-11T12:14:04.971Z,48.22
2018-06-11T12:15:04.979Z,46.37
2018-06-11T12:16:04.988Z,50.04
2018-06-11T12:17:05.124Z,50.73
2018-06-11T12:18:05.264Z,50.34
2018-06-11T12:19:05.134Z,49.46
2018-06-11T12:20:05.031Z,50.80
2018-06-11T12:21:05.041Z,50.34
2018-06-11T12:22:05.052Z,53.91
2018-06-11T12:23:05.063Z,51.09
2018-06-11T12:24:05.074Z,54.69
2018-06-11T12:25:05.090Z,50.41
2018-06-11T12:26:05.534Z,50.99
2018-06-11T12:27:05.102Z,54.11
2018-06-11T12:28:05.119Z,52.26
2018-06-11T12:29:05.123Z,54.76
2018-06-11T12:30:05.135Z,52.04
2018-06-11T12:31:05.219Z,52.40
2018-06-11T12:32:05.153Z,54.54
2018-06-11T12:33:05.164Z,54.64
2018-06-11T12:34:05.314Z,56.29
2018-06-11T12:35:05.239Z,55.41
2018-06-11T12:36:05.237Z,55.88
2018-06-11T12:37:05.199Z,54.42
2018-06-11T12:38:05.210Z,55.68
2018-06-11T12:39:05.217Z,57.14
2018-06-11T12:40:05.337Z,57.33
2018-06-11T12:41:05.285Z,57.31
2018-06-11T12:42:05.246Z,55.36
2018-06-11T12:43:05.256Z,55.17
2018-06-11T12:44:05.265Z,56.82
2018-06-11T12:45:05.326Z,53.32
2018-06-11T12:46:05.289Z,53.42
2018-06-11T12:47:05.322Z,54.97
2018-06-11T12:48:05.306Z,54.68
2018-06-11T12:49:05.308Z,57.01
2018-06-11T12:50:05.318Z,59.74
2018-06-11T12:51:05.325Z,59.22
2018-06-11T12:52:05.335Z,59.80
2018-06-11T12:53:05.343Z,68.35
2018-06-11T12:54:05.636Z,60.68
2018-06-11T12:55:05.371Z,60.77